AAL3226 KCLT-KCMH
Flight info
| Callsign | AAL3226 |
|---|---|
| Flight time | 0h 56m |
| Altitude | 32000 |
| Route | WEAZL5 CLAWD MCGNS SCRLT2 |
| Aircraft | B738/M-SDE2E3FGHIRWXY/LB1 |
Departure
| Time | 2026-05-08 19:23 |
|---|---|
| Airport | Charlotte Douglas International Airport (KCLT) |
Arrival
| Time | 2026-05-08 20:20 |
|---|---|
| Airport | John Glenn Columbus International Airport (KCMH) |
| Time | Latitude | Longitude | Altitude | Speed | Heading |
|---|---|---|---|---|---|
| 2026-05-08 19:13 | 35.21792 | -80.94480 | 731 ft | 0 kts | 288° |
| 2026-05-08 19:15 | 35.21789 | -80.94470 | 731 ft | 2 kts | 288° |
| 2026-05-08 19:15 | 35.21784 | -80.94451 | 730 ft | 2 kts | 283° |
| 2026-05-08 19:15 | 35.21789 | -80.94432 | 729 ft | 3 kts | 227° |
| 2026-05-08 19:16 | 35.21804 | -80.94413 | 730 ft | 3 kts | 227° |
| 2026-05-08 19:16 | 35.21820 | -80.94396 | 731 ft | 3 kts | 186° |
| 2026-05-08 19:16 | 35.21825 | -80.94396 | 731 ft | 0 kts | 179° |
| 2026-05-08 19:18 | 35.21803 | -80.94396 | 729 ft | 10 kts | 179° |
| 2026-05-08 19:18 | 35.21718 | -80.94395 | 731 ft | 13 kts | 183° |
| 2026-05-08 19:19 | 35.21610 | -80.94463 | 731 ft | 19 kts | 212° |
| 2026-05-08 19:19 | 35.21504 | -80.94494 | 731 ft | 18 kts | 139° |
| 2026-05-08 19:19 | 35.21431 | -80.94465 | 731 ft | 8 kts | 210° |
| 2026-05-08 19:19 | 35.21368 | -80.94545 | 730 ft | 18 kts | 229° |
| 2026-05-08 19:20 | 35.21308 | -80.94692 | 731 ft | 21 kts | 251° |
| 2026-05-08 19:20 | 35.21268 | -80.94798 | 730 ft | 21 kts | 233° |
| 2026-05-08 19:20 | 35.21139 | -80.94963 | 731 ft | 20 kts | 213° |
| 2026-05-08 19:20 | 35.21005 | -80.94966 | 728 ft | 20 kts | 174° |
| 2026-05-08 19:21 | 35.20856 | -80.94952 | 726 ft | 22 kts | 175° |
| 2026-05-08 19:21 | 35.20695 | -80.94941 | 732 ft | 25 kts | 177° |
| 2026-05-08 19:21 | 35.20526 | -80.94929 | 732 ft | 24 kts | 176° |
| 2026-05-08 19:21 | 35.20367 | -80.94914 | 732 ft | 23 kts | 175° |
| 2026-05-08 19:22 | 35.20212 | -80.94897 | 732 ft | 22 kts | 175° |
| 2026-05-08 19:22 | 35.20063 | -80.94886 | 732 ft | 21 kts | 192° |
| 2026-05-08 19:22 | 35.20010 | -80.95034 | 734 ft | 21 kts | 279° |
| 2026-05-08 19:22 | 35.20133 | -80.95097 | 736 ft | 27 kts | 359° |
| 2026-05-08 19:23 | 35.20562 | -80.95133 | 739 ft | 98 kts | 356° |
| 2026-05-08 19:23 | 35.21463 | -80.95212 | 739 ft | 159 kts | 355° |
| 2026-05-08 19:23 | 35.22619 | -80.95318 | 1292 ft | 167 kts | 354° |
| 2026-05-08 19:23 | 35.23754 | -80.95659 | 2076 ft | 173 kts | 327° |
| 2026-05-08 19:24 | 35.24779 | -80.96586 | 2602 ft | 196 kts | 320° |
| 2026-05-08 19:24 | 35.25938 | -80.97714 | 2870 ft | 227 kts | 321° |
| 2026-05-08 19:24 | 35.27223 | -80.98972 | 3302 ft | 243 kts | 318° |
| 2026-05-08 19:24 | 35.28510 | -81.00328 | 3983 ft | 245 kts | 318° |
| 2026-05-08 19:25 | 35.29828 | -81.01699 | 4693 ft | 248 kts | 318° |
| 2026-05-08 19:25 | 35.31187 | -81.03130 | 5150 ft | 268 kts | 317° |
| 2026-05-08 19:25 | 35.32585 | -81.04648 | 6088 ft | 265 kts | 316° |
| 2026-05-08 19:25 | 35.33944 | -81.06158 | 7090 ft | 265 kts | 319° |
| 2026-05-08 19:26 | 35.35660 | -81.07033 | 7921 ft | 277 kts | 351° |
| 2026-05-08 19:26 | 35.37603 | -81.07088 | 8796 ft | 281 kts | 355° |
| 2026-05-08 19:26 | 35.39577 | -81.07092 | 9612 ft | 286 kts | 354° |
| 2026-05-08 19:26 | 35.41582 | -81.07117 | 10384 ft | 292 kts | 353° |
| 2026-05-08 19:27 | 35.43691 | -81.07175 | 10659 ft | 316 kts | 353° |
| 2026-05-08 19:27 | 35.45933 | -81.07254 | 11189 ft | 326 kts | 353° |
| 2026-05-08 19:27 | 35.48219 | -81.07344 | 11943 ft | 331 kts | 353° |
| 2026-05-08 19:27 | 35.50525 | -81.07445 | 12748 ft | 333 kts | 352° |
| 2026-05-08 19:28 | 35.52856 | -81.07552 | 13525 ft | 337 kts | 352° |
| 2026-05-08 19:28 | 35.55215 | -81.07662 | 14237 ft | 342 kts | 352° |
| 2026-05-08 19:28 | 35.57603 | -81.07814 | 14821 ft | 348 kts | 350° |
| 2026-05-08 19:28 | 35.60089 | -81.08031 | 15013 ft | 367 kts | 350° |
| 2026-05-08 19:29 | 35.62669 | -81.08258 | 15492 ft | 375 kts | 350° |
| 2026-05-08 19:29 | 35.65290 | -81.08478 | 16150 ft | 378 kts | 349° |
| 2026-05-08 19:29 | 35.67920 | -81.08694 | 16863 ft | 380 kts | 349° |
| 2026-05-08 19:29 | 35.70566 | -81.08908 | 17521 ft | 383 kts | 349° |
| 2026-05-08 19:30 | 35.73234 | -81.09124 | 18148 ft | 386 kts | 349° |
| 2026-05-08 19:30 | 35.75922 | -81.09341 | 18725 ft | 389 kts | 348° |
| 2026-05-08 19:30 | 35.78632 | -81.09560 | 19252 ft | 392 kts | 348° |
| 2026-05-08 19:30 | 35.81367 | -81.09781 | 19781 ft | 395 kts | 348° |
| 2026-05-08 19:31 | 35.84120 | -81.10003 | 20332 ft | 398 kts | 348° |
| 2026-05-08 19:31 | 35.86890 | -81.10227 | 20840 ft | 401 kts | 347° |
| 2026-05-08 19:31 | 35.89682 | -81.10453 | 21342 ft | 404 kts | 347° |
| 2026-05-08 19:31 | 35.92497 | -81.10681 | 21870 ft | 407 kts | 347° |
| 2026-05-08 19:32 | 35.95340 | -81.10913 | 22309 ft | 412 kts | 347° |
| 2026-05-08 19:32 | 35.98212 | -81.11146 | 22767 ft | 415 kts | 347° |
| 2026-05-08 19:32 | 36.01097 | -81.11379 | 23293 ft | 417 kts | 347° |
| 2026-05-08 19:32 | 36.04003 | -81.11615 | 23725 ft | 420 kts | 347° |
| 2026-05-08 19:33 | 36.06894 | -81.11849 | 24095 ft | 423 kts | 346° |
| 2026-05-08 19:33 | 36.09837 | -81.12088 | 24507 ft | 424 kts | 346° |
| 2026-05-08 19:33 | 36.12784 | -81.12326 | 24951 ft | 425 kts | 346° |
| 2026-05-08 19:33 | 36.15738 | -81.12566 | 25354 ft | 426 kts | 345° |
| 2026-05-08 19:34 | 36.18704 | -81.12808 | 25776 ft | 428 kts | 345° |
| 2026-05-08 19:34 | 36.21682 | -81.13050 | 26158 ft | 430 kts | 344° |
| 2026-05-08 19:34 | 36.24670 | -81.13294 | 26538 ft | 431 kts | 344° |
| 2026-05-08 19:34 | 36.27676 | -81.13539 | 26899 ft | 433 kts | 344° |
| 2026-05-08 19:35 | 36.30688 | -81.13785 | 27243 ft | 435 kts | 344° |
| 2026-05-08 19:35 | 36.33720 | -81.14042 | 27401 ft | 438 kts | 343° |
| 2026-05-08 19:35 | 36.36761 | -81.14292 | 27816 ft | 438 kts | 343° |
| 2026-05-08 19:35 | 36.39791 | -81.14541 | 28405 ft | 428 kts | 340° |
| 2026-05-08 19:36 | 36.42620 | -81.15084 | 29473 ft | 398 kts | 331° |
| 2026-05-08 19:36 | 36.45194 | -81.16118 | 29753 ft | 387 kts | 324° |
| 2026-05-08 19:36 | 36.47723 | -81.17353 | 29851 ft | 394 kts | 324° |
| 2026-05-08 19:36 | 36.50278 | -81.18614 | 30159 ft | 396 kts | 324° |
| 2026-05-08 19:37 | 36.52836 | -81.19861 | 30649 ft | 392 kts | 324° |
| 2026-05-08 19:37 | 36.55365 | -81.21075 | 31190 ft | 387 kts | 323° |
| 2026-05-08 19:37 | 36.57873 | -81.22279 | 31569 ft | 386 kts | 323° |
| 2026-05-08 19:37 | 36.60377 | -81.23483 | 31885 ft | 386 kts | 323° |
| 2026-05-08 19:38 | 36.62892 | -81.24694 | 32042 ft | 389 kts | 323° |
| 2026-05-08 19:38 | 36.67965 | -81.27128 | 32096 ft | 389 kts | 324° |
| 2026-05-08 19:39 | 36.72999 | -81.29539 | 32100 ft | 392 kts | 324° |
| 2026-05-08 19:39 | 36.78117 | -81.31992 | 32077 ft | 395 kts | 324° |
| 2026-05-08 19:40 | 36.83249 | -81.34459 | 32080 ft | 395 kts | 324° |
| 2026-05-08 19:40 | 36.88380 | -81.36926 | 32058 ft | 395 kts | 324° |
| 2026-05-08 19:41 | 36.93492 | -81.39388 | 32102 ft | 394 kts | 325° |
| 2026-05-08 19:41 | 36.98615 | -81.41845 | 32073 ft | 394 kts | 324° |
| 2026-05-08 19:42 | 37.03731 | -81.44327 | 32064 ft | 394 kts | 324° |
| 2026-05-08 19:42 | 37.08848 | -81.46801 | 32057 ft | 393 kts | 324° |
| 2026-05-08 19:43 | 37.13943 | -81.49271 | 32034 ft | 392 kts | 324° |
| 2026-05-08 19:43 | 37.19009 | -81.51730 | 32060 ft | 390 kts | 325° |
| 2026-05-08 19:44 | 37.24119 | -81.54227 | 32034 ft | 398 kts | 326° |
| 2026-05-08 19:44 | 37.29310 | -81.56727 | 32026 ft | 402 kts | 326° |
| 2026-05-08 19:45 | 37.34524 | -81.59242 | 32025 ft | 400 kts | 326° |
| 2026-05-08 19:45 | 37.39711 | -81.61766 | 32027 ft | 401 kts | 326° |
| 2026-05-08 19:46 | 37.44881 | -81.64319 | 32024 ft | 403 kts | 327° |
| 2026-05-08 19:46 | 37.52742 | -81.68190 | 32030 ft | 402 kts | 326° |
| 2026-05-08 19:47 | 37.57920 | -81.70724 | 32021 ft | 400 kts | 326° |
| 2026-05-08 19:47 | 37.63090 | -81.73263 | 32024 ft | 398 kts | 326° |
| 2026-05-08 19:48 | 37.68252 | -81.75812 | 32031 ft | 401 kts | 326° |
| 2026-05-08 19:48 | 37.73465 | -81.78382 | 32010 ft | 403 kts | 326° |
| 2026-05-08 19:49 | 37.78680 | -81.80995 | 32013 ft | 404 kts | 326° |
| 2026-05-08 19:49 | 37.83926 | -81.83586 | 31996 ft | 404 kts | 327° |
| 2026-05-08 19:50 | 37.89155 | -81.86153 | 32003 ft | 403 kts | 326° |
| 2026-05-08 19:50 | 37.94368 | -81.88715 | 32037 ft | 402 kts | 327° |
| 2026-05-08 19:51 | 37.99569 | -81.91292 | 32029 ft | 401 kts | 326° |
| 2026-05-08 19:51 | 38.04753 | -81.93879 | 32008 ft | 399 kts | 326° |
| 2026-05-08 19:52 | 38.09912 | -81.96449 | 32013 ft | 398 kts | 326° |
| 2026-05-08 19:52 | 38.15046 | -81.99001 | 31836 ft | 391 kts | 326° |
| 2026-05-08 19:53 | 38.16711 | -81.99831 | 31653 ft | 386 kts | 326° |
| 2026-05-08 19:53 | 38.19194 | -82.01067 | 31248 ft | 381 kts | 326° |
| 2026-05-08 19:53 | 38.21646 | -82.02293 | 30862 ft | 377 kts | 327° |
| 2026-05-08 19:53 | 38.24889 | -82.03918 | 30329 ft | 373 kts | 327° |
| 2026-05-08 19:54 | 38.26479 | -82.04717 | 30055 ft | 371 kts | 327° |
| 2026-05-08 19:54 | 38.28875 | -82.05918 | 29579 ft | 368 kts | 327° |
| 2026-05-08 19:54 | 38.31244 | -82.07100 | 29138 ft | 364 kts | 327° |
| 2026-05-08 19:54 | 38.33589 | -82.08278 | 28732 ft | 360 kts | 327° |
| 2026-05-08 19:55 | 38.35905 | -82.09447 | 28307 ft | 357 kts | 327° |
| 2026-05-08 19:55 | 38.38206 | -82.10608 | 27882 ft | 354 kts | 327° |
| 2026-05-08 19:55 | 38.40487 | -82.11757 | 27514 ft | 351 kts | 327° |
| 2026-05-08 19:55 | 38.42749 | -82.12897 | 27088 ft | 349 kts | 328° |
| 2026-05-08 19:56 | 38.45002 | -82.14031 | 26685 ft | 346 kts | 328° |
| 2026-05-08 19:56 | 38.47235 | -82.15156 | 26293 ft | 344 kts | 328° |
| 2026-05-08 19:56 | 38.49510 | -82.16157 | 25873 ft | 352 kts | 336° |
| 2026-05-08 19:56 | 38.51942 | -82.16707 | 25458 ft | 356 kts | 341° |
| 2026-05-08 19:57 | 38.54397 | -82.17133 | 25070 ft | 356 kts | 342° |
| 2026-05-08 19:57 | 38.56849 | -82.17536 | 24676 ft | 354 kts | 342° |
| 2026-05-08 19:57 | 38.59288 | -82.17944 | 24285 ft | 353 kts | 342° |
| 2026-05-08 19:57 | 38.61717 | -82.18366 | 23881 ft | 352 kts | 342° |
| 2026-05-08 19:58 | 38.64138 | -82.18798 | 23502 ft | 351 kts | 342° |
| 2026-05-08 19:58 | 38.66552 | -82.19238 | 23037 ft | 350 kts | 342° |
| 2026-05-08 19:58 | 38.68955 | -82.19682 | 22614 ft | 347 kts | 342° |
| 2026-05-08 19:58 | 38.71330 | -82.20123 | 22232 ft | 344 kts | 342° |
| 2026-05-08 19:59 | 38.73686 | -82.20562 | 21862 ft | 340 kts | 342° |
| 2026-05-08 19:59 | 38.76019 | -82.20999 | 21478 ft | 338 kts | 342° |
| 2026-05-08 19:59 | 38.78335 | -82.21434 | 21109 ft | 335 kts | 342° |
| 2026-05-08 19:59 | 38.80633 | -82.21866 | 20735 ft | 332 kts | 342° |
| 2026-05-08 20:00 | 38.82912 | -82.22294 | 20379 ft | 330 kts | 342° |
| 2026-05-08 20:00 | 38.85175 | -82.22720 | 20020 ft | 328 kts | 342° |
| 2026-05-08 20:00 | 38.87425 | -82.23145 | 19686 ft | 326 kts | 342° |
| 2026-05-08 20:00 | 38.89665 | -82.23568 | 19313 ft | 325 kts | 342° |
| 2026-05-08 20:01 | 38.91893 | -82.23988 | 18944 ft | 323 kts | 343° |
| 2026-05-08 20:01 | 38.94113 | -82.24407 | 18588 ft | 322 kts | 343° |
| 2026-05-08 20:01 | 38.96322 | -82.24825 | 18213 ft | 320 kts | 343° |
| 2026-05-08 20:01 | 38.98520 | -82.25240 | 17808 ft | 318 kts | 343° |
| 2026-05-08 20:02 | 39.00677 | -82.25648 | 17420 ft | 316 kts | 343° |
| 2026-05-08 20:02 | 39.02841 | -82.26057 | 17080 ft | 313 kts | 343° |
| 2026-05-08 20:02 | 39.04988 | -82.26463 | 16706 ft | 311 kts | 343° |
| 2026-05-08 20:02 | 39.07119 | -82.26866 | 16364 ft | 308 kts | 344° |
| 2026-05-08 20:03 | 39.09233 | -82.27266 | 16038 ft | 305 kts | 344° |
| 2026-05-08 20:03 | 39.11320 | -82.27660 | 15764 ft | 302 kts | 344° |
| 2026-05-08 20:03 | 39.13392 | -82.28052 | 15429 ft | 300 kts | 344° |
| 2026-05-08 20:03 | 39.15449 | -82.28442 | 15085 ft | 298 kts | 345° |
| 2026-05-08 20:04 | 39.17494 | -82.28830 | 14756 ft | 296 kts | 345° |
| 2026-05-08 20:04 | 39.19529 | -82.29215 | 14422 ft | 295 kts | 345° |
| 2026-05-08 20:04 | 39.21553 | -82.29600 | 14085 ft | 294 kts | 345° |
| 2026-05-08 20:04 | 39.23587 | -82.29989 | 13758 ft | 297 kts | 345° |
| 2026-05-08 20:05 | 39.25637 | -82.30381 | 13383 ft | 300 kts | 345° |
| 2026-05-08 20:05 | 39.27715 | -82.30778 | 13006 ft | 304 kts | 346° |
| 2026-05-08 20:05 | 39.29818 | -82.31178 | 12639 ft | 305 kts | 346° |
| 2026-05-08 20:05 | 39.31909 | -82.31575 | 12283 ft | 303 kts | 346° |
| 2026-05-08 20:06 | 39.33986 | -82.31968 | 11948 ft | 300 kts | 346° |
| 2026-05-08 20:06 | 39.36046 | -82.32361 | 11594 ft | 299 kts | 346° |
| 2026-05-08 20:06 | 39.38100 | -82.32752 | 11269 ft | 298 kts | 346° |
| 2026-05-08 20:06 | 39.40148 | -82.33143 | 10924 ft | 297 kts | 347° |
| 2026-05-08 20:07 | 39.42186 | -82.33533 | 10571 ft | 296 kts | 347° |
| 2026-05-08 20:07 | 39.44200 | -82.33916 | 10414 ft | 288 kts | 347° |
| 2026-05-08 20:07 | 39.46153 | -82.34288 | 10278 ft | 280 kts | 346° |
| 2026-05-08 20:07 | 39.48051 | -82.34650 | 10153 ft | 272 kts | 347° |
| 2026-05-08 20:08 | 39.49888 | -82.35042 | 10022 ft | 262 kts | 339° |
| 2026-05-08 20:08 | 39.51441 | -82.36120 | 9856 ft | 252 kts | 319° |
| 2026-05-08 20:08 | 39.52865 | -82.37476 | 9679 ft | 258 kts | 320° |
| 2026-05-08 20:08 | 39.54327 | -82.38866 | 9480 ft | 263 kts | 320° |
| 2026-05-08 20:09 | 39.55811 | -82.40275 | 9293 ft | 266 kts | 319° |
| 2026-05-08 20:09 | 39.57313 | -82.41699 | 9093 ft | 268 kts | 319° |
| 2026-05-08 20:09 | 39.58824 | -82.43131 | 8886 ft | 270 kts | 319° |
| 2026-05-08 20:09 | 39.60346 | -82.44572 | 8689 ft | 271 kts | 319° |
| 2026-05-08 20:10 | 39.61860 | -82.46004 | 8480 ft | 267 kts | 319° |
| 2026-05-08 20:10 | 39.63349 | -82.47415 | 8285 ft | 263 kts | 319° |
| 2026-05-08 20:10 | 39.64820 | -82.48809 | 8091 ft | 261 kts | 319° |
| 2026-05-08 20:10 | 39.66285 | -82.50196 | 7887 ft | 261 kts | 319° |
| 2026-05-08 20:11 | 39.67742 | -82.51581 | 7701 ft | 260 kts | 319° |
| 2026-05-08 20:11 | 39.69198 | -82.52963 | 7509 ft | 259 kts | 319° |
| 2026-05-08 20:11 | 39.70632 | -82.54323 | 7331 ft | 259 kts | 319° |
| 2026-05-08 20:11 | 39.72098 | -82.55697 | 7141 ft | 260 kts | 320° |
| 2026-05-08 20:12 | 39.73601 | -82.57018 | 6948 ft | 261 kts | 321° |
| 2026-05-08 20:12 | 39.75109 | -82.58328 | 6756 ft | 261 kts | 321° |
| 2026-05-08 20:12 | 39.76621 | -82.59646 | 6572 ft | 262 kts | 321° |
| 2026-05-08 20:12 | 39.78133 | -82.60971 | 6379 ft | 262 kts | 321° |
| 2026-05-08 20:13 | 39.79644 | -82.62298 | 6189 ft | 262 kts | 320° |
| 2026-05-08 20:13 | 39.81190 | -82.63543 | 5967 ft | 264 kts | 332° |
| 2026-05-08 20:13 | 39.83009 | -82.63977 | 5788 ft | 267 kts | 351° |
| 2026-05-08 20:13 | 39.84854 | -82.64141 | 5611 ft | 265 kts | 349° |
| 2026-05-08 20:14 | 39.86680 | -82.64322 | 5423 ft | 261 kts | 349° |
| 2026-05-08 20:14 | 39.88457 | -82.64503 | 5216 ft | 252 kts | 349° |
| 2026-05-08 20:14 | 39.90171 | -82.64680 | 5054 ft | 242 kts | 349° |
| 2026-05-08 20:14 | 39.91788 | -82.64955 | 5011 ft | 229 kts | 341° |
| 2026-05-08 20:15 | 39.93333 | -82.65420 | 5006 ft | 228 kts | 339° |
| 2026-05-08 20:15 | 39.94875 | -82.65935 | 4990 ft | 229 kts | 338° |
| 2026-05-08 20:15 | 39.96411 | -82.66461 | 4995 ft | 228 kts | 338° |
| 2026-05-08 20:15 | 39.97949 | -82.66990 | 5004 ft | 229 kts | 338° |
| 2026-05-08 20:16 | 39.99487 | -82.67515 | 5021 ft | 228 kts | 338° |
| 2026-05-08 20:16 | 40.01021 | -82.68049 | 5005 ft | 226 kts | 334° |
| 2026-05-08 20:16 | 40.02213 | -82.69191 | 4905 ft | 206 kts | 295° |
| 2026-05-08 20:16 | 40.02472 | -82.70897 | 4545 ft | 190 kts | 256° |
| 2026-05-08 20:17 | 40.01923 | -82.72469 | 3922 ft | 194 kts | 242° |
| 2026-05-08 20:17 | 40.01213 | -82.73980 | 3406 ft | 198 kts | 232° |
| 2026-05-08 20:17 | 40.00307 | -82.75231 | 3313 ft | 182 kts | 229° |
| 2026-05-08 20:17 | 39.99513 | -82.76453 | 3044 ft | 176 kts | 240° |
| 2026-05-08 20:18 | 39.98943 | -82.77854 | 2678 ft | 178 kts | 245° |
| 2026-05-08 20:18 | 39.98651 | -82.79434 | 2272 ft | 182 kts | 271° |
| 2026-05-08 20:18 | 39.98806 | -82.81057 | 1922 ft | 178 kts | 274° |
| 2026-05-08 20:18 | 39.98893 | -82.82624 | 1634 ft | 166 kts | 270° |
| 2026-05-08 20:19 | 39.98960 | -82.84061 | 1473 ft | 151 kts | 274° |
| 2026-05-08 20:19 | 39.99068 | -82.85389 | 1184 ft | 144 kts | 272° |
| 2026-05-08 20:19 | 39.99117 | -82.86664 | 952 ft | 139 kts | 271° |
| 2026-05-08 20:19 | 39.99194 | -82.87897 | 821 ft | 131 kts | 271° |
| 2026-05-08 20:20 | 39.99251 | -82.88886 | 820 ft | 81 kts | 274° |
| 2026-05-08 20:20 | 39.99293 | -82.89404 | 819 ft | 48 kts | 285° |
| 2026-05-08 20:20 | 39.99387 | -82.89652 | 823 ft | 17 kts | 303° |
| 2026-05-08 20:20 | 39.99460 | -82.89681 | 819 ft | 12 kts | 53° |
| 2026-05-08 20:21 | 39.99468 | -82.89581 | 823 ft | 11 kts | 95° |
| 2026-05-08 20:21 | 39.99459 | -82.89452 | 825 ft | 17 kts | 95° |
| 2026-05-08 20:21 | 39.99449 | -82.89297 | 824 ft | 18 kts | 94° |
| 2026-05-08 20:21 | 39.99440 | -82.89118 | 819 ft | 22 kts | 94° |
| 2026-05-08 20:22 | 39.99428 | -82.88901 | 821 ft | 26 kts | 94° |
| 2026-05-08 20:22 | 39.99414 | -82.88658 | 817 ft | 28 kts | 95° |
| 2026-05-08 20:22 | 39.99401 | -82.88419 | 819 ft | 26 kts | 92° |
| 2026-05-08 20:22 | 39.99471 | -82.88325 | 819 ft | 25 kts | 359° |
| 2026-05-08 20:23 | 39.99652 | -82.88211 | 817 ft | 23 kts | 51° |
| 2026-05-08 20:23 | 39.99732 | -82.88158 | 821 ft | 5 kts | 9° |
| 2026-05-08 20:23 | 39.99744 | -82.88155 | 821 ft | 0 kts | 9° |